Time;durP1;ratioP1;P1;durP2;ratioP2;P2;SDS_P1;SDS_P2;PMS_P1;PMS_P2;Temp;Humidity;BMP_temperature;BMP_pressure;BME280_temperature;BME280_humidity;BME280_pressure;Samples;Min_cycle;Max_cycle;Signal;HPM_P1;HPM_P2
2022/10/13 00:01:23;;;;;;;22.25;16.15;;;15.60;99.90;;;16.10;79.73;101710.72;5035385;28;20442;-70
2022/10/13 00:03:52;;;;;;;26.33;16.27;;;15.70;99.90;;;16.07;79.90;101700.09;5035378;28;20049;-70
2022/10/13 00:06:24;;;;;;;26.40;15.45;;;15.70;99.90;;;16.17;80.01;101706.19;5035255;28;20399;-69
2022/10/13 00:08:55;;;;;;;26.48;16.75;;;15.70;99.90;;;16.23;80.00;101706.09;5035278;28;20041;-69
2022/10/13 00:11:26;;;;;;;24.33;15.80;;;15.80;99.90;;;16.25;79.86;101704.31;5035459;28;20510;-69
2022/10/13 00:13:57;;;;;;;28.77;16.42;;;15.80;99.90;;;16.22;79.91;101699.88;5035760;28;20041;-69
2022/10/13 00:16:30;;;;;;;25.40;15.68;;;15.80;99.90;;;16.37;79.66;101704.13;5035217;28;20442;-69
2022/10/13 00:18:59;;;;;;;28.40;16.85;;;15.90;99.90;;;16.39;79.49;101705.00;5035398;28;20041;-69
2022/10/13 00:21:28;;;;;;;23.92;16.73;;;16.00;99.90;;;16.41;79.56;101705.84;5035064;28;20084;-69
2022/10/13 00:23:57;;;;;;;25.02;15.60;;;16.00;99.90;;;16.42;79.52;101710.28;5035065;28;20055;-69
2022/10/13 00:26:27;;;;;;;22.92;15.52;;;16.00;99.90;;;16.44;79.42;101702.22;5034941;28;20502;-70
2022/10/13 00:28:55;;;;;;;25.52;15.43;;;16.00;99.90;;;16.40;79.98;101701.41;5034960;28;20048;-70
2022/10/13 00:31:27;;;;;;;25.98;16.27;;;16.00;99.90;;;16.41;79.85;101702.28;5035239;28;20062;-69
2022/10/13 00:33:56;;;;;;;23.42;15.98;;;16.00;99.90;;;16.43;79.97;101706.72;5035311;28;20056;-70
2022/10/13 00:36:24;;;;;;;25.83;15.25;;;16.00;99.90;;;16.47;79.86;101704.88;5035517;28;20046;-69
2022/10/13 00:38:53;;;;;;;21.55;16.08;;;16.00;99.90;;;16.51;79.72;101710.16;5035217;28;20048;-70
2022/10/13 00:41:23;;;;;;;24.13;16.52;;;16.10;99.90;;;16.54;79.60;101710.13;5034999;28;20091;-70
2022/10/13 00:43:57;;;;;;;24.80;16.17;;;16.10;99.90;;;16.56;79.43;101708.31;5034692;28;20041;-69
2022/10/13 00:46:27;;;;;;;24.33;16.00;;;16.20;99.90;;;16.57;79.43;101707.41;5034677;28;20406;-70
2022/10/13 00:49:01;;;;;;;28.67;16.60;;;16.20;99.90;;;16.52;79.31;101695.91;5050156;28;20052;-69
2022/10/13 00:51:33;;;;;;;25.92;16.75;;;16.20;99.90;;;16.61;79.24;101710.91;5034515;28;20120;-69
2022/10/13 00:54:04;;;;;;;23.25;15.70;;;16.20;99.90;;;16.64;79.14;101711.75;5034567;28;20041;-69
2022/10/13 00:56:35;;;;;;;24.38;15.23;;;16.20;99.90;;;16.60;79.21;101707.38;5034698;28;20052;-69
2022/10/13 00:59:05;;;;;;;27.92;16.00;;;16.20;99.90;;;16.56;79.55;101700.31;5034467;28;20411;-69
2022/10/13 01:01:34;;;;;;;;;;;16.20;99.90;;;16.31;80.18;101680.19;5033724;28;20483;-69
2022/10/13 01:04:02;;;;;;;23.77;15.70;;;16.10;99.90;;;16.50;80.62;101688.81;5033964;28;19925;-70
2022/10/13 01:06:31;;;;;;;25.88;15.43;;;16.10;99.90;;;16.51;80.61;101685.25;5034233;28;20057;-69
2022/10/13 01:08:59;;;;;;;22.80;15.05;;;16.10;99.90;;;16.49;80.71;101684.41;5034133;28;20049;-69
2022/10/13 01:11:55;;;;;;;25.27;14.90;;;16.10;99.90;;;16.54;80.74;101677.19;5034037;28;20056;-69
2022/10/13 01:14:34;;;;;;;25.15;15.52;;;16.10;99.90;;;16.54;80.98;101694.09;5034107;28;20052;-69
2022/10/13 01:17:11;;;;;;;28.52;16.52;;;16.10;99.90;;;16.54;81.00;101693.22;5033963;28;20041;-69
2022/10/13 01:20:09;;;;;;;25.88;15.30;;;16.10;99.90;;;16.48;81.39;101695.94;5034522;28;20052;-68
2022/10/13 01:22:57;;;;;;;28.55;15.45;;;16.10;99.90;;;16.49;81.63;101695.94;5034103;28;20053;-68
2022/10/13 01:25:46;;;;;;;23.08;15.23;;;16.00;99.90;;;16.42;82.00;101688.91;5033787;28;20048;-69
2022/10/13 01:28:36;;;;;;;25.40;15.75;;;16.00;99.90;;;16.46;82.15;101695.09;5033749;28;20155;-69
2022/10/13 01:31:13;;;;;;;24.15;16.00;;;16.00;99.90;;;16.36;82.70;101691.66;5033549;28;20552;-68
2022/10/13 01:33:49;;;;;;;24.50;15.38;;;15.90;99.90;;;16.37;83.09;101690.78;5033616;28;20053;-69
2022/10/13 01:36:26;;;;;;;23.45;16.75;;;15.90;99.90;;;16.34;83.30;101698.81;5033617;28;20045;-68
2022/10/13 01:39:03;;;;;;;24.90;16.70;;;15.90;99.90;;;16.37;83.54;101684.53;5033812;28;20120;-68
2022/10/13 01:41:37;;;;;;;26.35;16.83;;;15.90;99.90;;;16.38;83.78;101680.97;5033511;28;20038;-68
2022/10/13 01:44:15;;;;;;;25.98;17.13;;;15.90;99.90;;;16.24;83.84;101641.13;5033507;28;20038;-68
2022/10/13 01:46:53;;;;;;;26.13;16.63;;;15.90;99.90;;;16.31;84.28;101658.81;5033664;28;20051;-68
2022/10/13 01:49:28;;;;;;;24.55;16.85;;;15.90;99.90;;;16.32;84.61;101686.41;5033928;28;20041;-68
2022/10/13 01:52:02;;;;;;;23.88;17.20;;;15.90;99.90;;;16.30;84.93;101666.88;5033884;28;20046;-68
2022/10/13 01:54:30;;;;;;;24.83;17.17;;;15.90;99.90;;;16.27;85.03;101641.97;5032215;28;20053;-68
2022/10/13 01:56:59;;;;;;;30.05;17.75;;;15.80;99.90;;;16.23;85.24;101636.69;5033368;28;20129;-67
2022/10/13 01:59:32;;;;;;;25.13;17.23;;;15.80;99.90;;;16.21;85.51;101630.50;5033143;28;20069;-68
2022/10/13 02:02:10;;;;;;;26.45;17.35;;;15.80;99.90;;;16.11;85.96;101639.53;5033377;28;20506;-68
2022/10/13 02:04:53;;;;;;;25.50;17.27;;;15.80;99.90;;;15.97;86.40;101626.41;5033049;28;20046;-68
2022/10/13 02:07:28;;;;;;;26.30;18.13;;;15.70;99.90;;;16.08;86.75;101644.94;5033013;28;20050;-68
2022/10/13 02:10:05;;;;;;;27.73;18.35;;;15.70;99.90;;;16.03;87.21;101645.00;5033027;28;20042;-68
2022/10/13 02:12:40;;;;;;;24.50;17.65;;;15.60;99.90;;;16.00;87.47;101647.72;5033032;28;20507;-68
2022/10/13 02:15:12;;;;;;;26.73;18.90;;;15.60;99.90;;;15.94;87.71;101644.25;5032359;28;20055;-68
2022/10/13 02:17:42;;;;;;;27.73;18.48;;;15.60;99.90;;;15.79;88.16;101599.09;5032795;28;20046;-68
2022/10/13 02:20:11;;;;;;;29.88;18.08;;;15.50;99.90;;;16.01;88.22;101619.22;5032913;28;20479;-67
2022/10/13 02:22:45;;;;;;;28.85;17.77;;;15.60;99.90;;;15.98;88.49;101617.50;5032605;28;20095;-68
2022/10/13 02:25:14;;;;;;;26.48;19.02;;;15.60;99.90;;;16.04;88.49;101616.53;5032834;28;20044;-68
2022/10/13 02:27:42;;;;;;;27.48;18.80;;;15.60;99.90;;;16.04;88.65;101621.88;5032768;28;20052;-68
2022/10/13 02:30:21;;;;;;;27.30;19.10;;;15.70;99.90;;;15.95;88.83;101617.53;5032675;28;20156;-68
2022/10/13 02:32:50;;;;;;;29.73;19.13;;;15.60;99.90;;;15.93;89.03;101623.81;5032933;28;20056;-68
2022/10/13 02:35:19;;;;;;;29.70;19.27;;;15.60;99.90;;;15.94;89.21;101625.56;5032866;28;20059;-68
2022/10/13 02:37:47;;;;;;;26.83;18.98;;;15.50;99.90;;;15.91;89.38;101621.13;5032508;28;20045;-67
2022/10/13 02:40:15;;;;;;;27.42;17.63;;;15.50;99.90;;;15.87;89.57;101618.56;5032889;28;20391;-68
2022/10/13 02:42:44;;;;;;;29.98;17.63;;;15.50;99.90;;;15.85;89.39;101612.38;5033180;28;20088;-68
2022/10/13 02:45:12;;;;;;;26.75;18.60;;;15.50;99.90;;;15.79;89.81;101612.44;5032875;28;20049;-68
2022/10/13 02:47:41;;;;;;;30.55;17.13;;;15.40;99.90;;;15.86;89.75;101616.78;5032488;28;20060;-68
2022/10/13 02:50:10;;;;;;;26.23;18.77;;;15.40;99.90;;;15.85;89.45;101617.69;5032454;28;20071;-68
2022/10/13 02:52:39;;;;;;;25.98;17.52;;;15.50;99.90;;;15.84;89.59;101607.91;5032536;28;20072;-68
2022/10/13 02:55:08;;;;;;;32.30;17.67;;;15.40;99.90;;;15.80;89.49;101608.84;5033000;28;20042;-68
2022/10/13 02:57:38;;;;;;;29.38;18.25;;;15.40;99.90;;;15.92;89.32;101606.03;5032679;28;20406;-68
2022/10/13 03:00:08;;;;;;;30.65;18.15;;;15.50;99.90;;;15.90;89.27;101602.50;5032990;28;20123;-68
2022/10/13 03:02:36;;;;;;;32.40;19.15;;;15.50;99.90;;;15.94;89.27;101598.88;5032500;28;20057;-68
2022/10/13 03:05:05;;;;;;;30.60;18.77;;;15.50;99.90;;;15.94;89.27;101601.53;5032381;28;20045;-68
2022/10/13 03:07:35;;;;;;;25.50;16.88;;;15.60;99.90;;;15.99;89.16;101599.69;5032430;28;20205;-68
2022/10/13 03:10:05;;;;;;;32.72;19.27;;;15.50;99.90;;;16.05;88.89;101602.25;5032428;28;20041;-68
2022/10/13 03:12:33;;;;;;;29.30;19.20;;;15.60;99.90;;;16.04;88.67;101596.06;5031366;28;20487;-68
2022/10/13 03:15:01;;;;;;;28.65;18.25;;;15.60;99.90;;;16.05;88.77;101586.25;5032945;28;20038;-68
2022/10/13 03:17:29;;;;;;;33.33;18.10;;;15.60;99.90;;;16.04;88.97;101588.06;5032865;28;20446;-67
2022/10/13 03:19:58;;;;;;;27.42;18.52;;;15.60;99.90;;;16.05;88.96;101579.13;5032207;28;20045;-68
2022/10/13 03:22:26;;;;;;;28.77;17.85;;;15.70;99.90;;;16.06;88.87;101575.56;5032761;28;20067;-68
2022/10/13 03:24:57;;;;;;;29.42;18.35;;;15.60;99.90;;;16.10;88.90;101563.91;5032708;28;20042;-68
2022/10/13 03:27:25;;;;;;;29.30;18.33;;;15.70;99.90;;;16.09;88.94;101562.16;5036017;28;20041;-68
2022/10/13 03:29:53;;;;;;;30.02;17.77;;;15.70;99.90;;;16.10;88.96;101544.38;5036172;28;20045;-68
2022/10/13 03:32:21;;;;;;;29.23;18.20;;;15.70;99.90;;;16.17;88.67;101536.22;5036260;28;20079;-67
2022/10/13 03:34:51;;;;;;;27.40;18.08;;;15.80;99.90;;;16.25;88.43;101545.00;5036509;28;20076;-68
2022/10/13 03:37:19;;;;;;;30.13;17.17;;;15.80;99.90;;;16.11;88.79;101552.34;5036477;28;20045;-68
2022/10/13 03:39:47;;;;;;;26.52;17.73;;;15.80;99.90;;;16.14;88.91;101567.44;5036105;28;20041;-67
2022/10/13 03:42:17;;;;;;;28.05;17.60;;;15.80;99.90;;;16.13;89.12;101573.66;5035822;28;20064;-67
2022/10/13 03:44:49;;;;;;;30.27;17.23;;;15.80;99.90;;;16.12;89.19;101571.91;5035804;28;20549;-68
2022/10/13 03:47:23;;;;;;;36.10;17.83;;;15.70;99.90;;;16.12;89.13;101571.91;5036051;28;20041;-68
2022/10/13 03:49:53;;;;;;;28.92;17.35;;;15.70;99.90;;;16.08;89.35;101568.44;5035615;28;20050;-68
2022/10/13 03:52:21;;;;;;;28.77;17.33;;;15.70;99.90;;;15.89;89.83;101542.03;5035584;28;20514;-68
2022/10/13 03:54:51;;;;;;;29.67;18.08;;;15.60;99.90;;;16.03;90.01;101572.94;5035808;28;20041;-68
2022/10/13 03:57:20;;;;;;;30.85;17.90;;;15.60;99.90;;;15.96;90.00;101557.03;5035458;28;20050;-68
2022/10/13 03:59:49;;;;;;;31.83;17.42;;;15.60;99.90;;;15.99;90.14;101555.19;5035332;28;20049;-68
2022/10/13 04:02:17;;;;;;;30.13;17.55;;;15.60;99.90;;;15.99;90.30;101567.66;5035351;28;20041;-68
2022/10/13 04:04:45;;;;;;;28.13;17.13;;;15.60;99.90;;;16.04;90.15;101573.81;5035628;28;20356;-68
2022/10/13 04:07:14;;;;;;;28.92;17.35;;;15.60;99.90;;;16.06;90.06;101575.56;5035292;28;20395;-68
2022/10/13 04:09:42;;;;;;;28.33;17.15;;;15.60;99.90;;;16.02;90.07;101579.19;5035150;28;20045;-68
2022/10/13 04:12:11;;;;;;;32.28;16.75;;;15.70;99.90;;;16.03;90.35;101574.72;5035187;28;20449;-68
2022/10/13 04:14:40;;;;;;;29.55;17.50;;;15.60;99.90;;;16.06;90.26;101580.03;5034352;28;20154;-67
2022/10/13 04:17:08;;;;;;;30.27;17.63;;;15.60;99.90;;;15.99;90.39;101578.34;5035103;28;20090;-69
2022/10/13 04:19:37;;;;;;;33.95;18.58;;;15.60;99.90;;;15.91;90.50;101567.78;5035017;28;20120;-68
2022/10/13 04:22:05;;;;;;;26.63;17.17;;;15.60;99.90;;;16.01;90.48;101576.53;5035294;28;20114;-68
2022/10/13 04:24:34;;;;;;;31.23;19.25;;;15.60;99.90;;;16.01;90.66;101573.84;5035249;28;20120;-67
2022/10/13 04:27:03;;;;;;;30.25;19.00;;;15.60;99.90;;;15.99;90.71;101573.00;5035443;28;20045;-68
2022/10/13 04:29:31;;;;;;;29.65;18.00;;;15.60;99.90;;;16.01;90.83;101564.06;5035458;28;20402;-68
2022/10/13 04:32:01;;;;;;;31.27;18.55;;;15.60;99.90;;;15.98;91.17;101558.78;5033659;28;20578;-68
2022/10/13 04:34:29;;;;;;;30.13;19.33;;;15.60;99.90;;;16.01;91.45;101558.72;5035402;28;20049;-68
2022/10/13 04:36:57;;;;;;;35.70;19.42;;;15.60;99.90;;;16.04;91.47;101563.16;5035013;28;20087;-68
2022/10/13 04:39:25;;;;;;;34.25;19.15;;;15.60;99.90;;;16.00;91.47;101559.66;5034787;28;20048;-68
2022/10/13 04:41:54;;;;;;;35.65;19.67;;;15.60;99.90;;;16.08;91.52;101554.19;5034632;28;20034;-69
2022/10/13 04:44:22;;;;;;;35.70;20.10;;;15.60;99.90;;;16.04;91.59;101555.16;5034623;28;20056;-68
2022/10/13 04:46:51;;;;;;;30.20;19.50;;;15.60;99.90;;;16.01;91.76;101565.84;5034520;28;20045;-69
2022/10/13 04:49:20;;;;;;;31.35;19.33;;;15.60;99.90;;;16.00;91.61;101566.78;5033467;28;20057;-68
2022/10/13 04:51:49;;;;;;;33.30;19.45;;;15.70;99.90;;;16.06;91.60;101572.91;5034715;28;20080;-68
2022/10/13 04:54:18;;;;;;;32.13;18.40;;;15.70;99.90;;;16.04;91.50;101565.81;5034381;28;20033;-67
2022/10/13 04:56:46;;;;;;;29.05;18.70;;;15.70;99.90;;;16.04;91.71;101573.81;5035015;28;20115;-68
2022/10/13 04:59:15;;;;;;;29.88;17.70;;;15.70;99.90;;;16.00;92.18;101570.31;5033243;28;20076;-68
2022/10/13 05:01:43;;;;;;;26.48;16.52;;;15.70;99.90;;;15.99;92.05;101559.66;5034519;28;20443;-68
2022/10/13 05:04:13;;;;;;;30.63;17.60;;;15.60;99.90;;;15.99;92.25;101560.53;5034312;28;20460;-68
2022/10/13 05:06:44;;;;;;;30.90;16.50;;;15.60;99.90;;;16.00;92.33;101558.75;5034225;28;20073;-68
2022/10/13 05:09:32;;;;;;;30.73;17.35;;;15.60;99.90;;;15.95;92.62;101557.97;5034388;28;20057;-68
2022/10/13 05:12:00;;;;;;;28.13;16.52;;;15.60;99.90;;;15.97;92.80;101564.13;5034276;28;20045;-68
2022/10/13 05:14:29;;;;;;;30.95;15.85;;;15.60;99.90;;;15.94;93.04;101566.84;5034071;28;20487;-68
2022/10/13 05:17:00;;;;;;;28.42;16.70;;;15.60;99.90;;;16.02;93.17;101567.63;5034278;28;20132;-68
2022/10/13 05:19:29;;;;;;;29.13;17.30;;;15.60;99.90;;;15.96;93.16;101573.94;5033833;28;20037;-67
2022/10/13 05:21:59;;;;;;;30.48;17.38;;;15.50;99.90;;;15.97;93.10;101566.78;5033917;28;20522;-68
2022/10/13 05:24:35;;;;;;;32.63;18.30;;;15.60;99.90;;;15.87;93.35;101551.84;5033753;28;20558;-67
2022/10/13 05:27:06;;;;;;;34.65;18.27;;;15.50;99.90;;;15.92;93.72;101552.66;5034117;28;20395;-68
2022/10/13 05:29:34;;;;;;;27.45;17.40;;;15.50;99.90;;;15.95;93.73;101552.63;5034056;28;20042;-67
2022/10/13 05:32:03;;;;;;;26.90;17.60;;;15.50;99.90;;;15.97;93.42;101545.44;5034120;28;20446;-68
2022/10/13 05:34:31;;;;;;;29.00;17.80;;;15.60;99.90;;;15.94;93.37;101545.50;5033784;28;20037;-68
2022/10/13 05:37:01;;;;;;;29.98;17.92;;;15.50;99.90;;;16.00;93.49;101542.75;5033672;28;20053;-67
2022/10/13 05:39:32;;;;;;;31.42;18.10;;;15.60;99.90;;;16.08;92.96;101538.19;5033934;28;20052;-68
2022/10/13 05:42:00;;;;;;;30.15;19.00;;;15.60;99.90;;;16.08;92.92;101532.84;5033562;28;20045;-66
2022/10/13 05:44:28;;;;;;;26.73;17.90;;;15.70;99.90;;;16.22;92.63;101520.13;5033611;28;20575;-68
2022/10/13 05:46:57;;;;;;;25.95;17.48;;;15.80;99.90;;;16.31;92.11;101513.75;5033474;28;20052;-68
2022/10/13 05:49:25;;;;;;;21.15;15.90;;;15.90;99.90;;;16.36;91.66;101512.75;5032557;28;20068;-68
2022/10/13 05:51:57;;;;;;;27.15;17.00;;;15.90;99.90;;;16.41;91.23;101516.25;5033442;28;20046;-68
2022/10/13 05:54:34;;;;;;;23.40;15.82;;;16.00;99.90;;;16.35;90.99;101500.34;5033774;28;20045;-67
2022/10/13 05:57:05;;;;;;;26.80;16.20;;;16.00;99.90;;;16.49;90.50;101518.81;5033752;28;20047;-68
2022/10/13 05:59:39;;;;;;;23.40;15.85;;;16.10;99.90;;;16.44;90.52;101532.19;5033692;28;20041;-68
2022/10/13 06:02:10;;;;;;;25.13;16.40;;;16.10;99.90;;;16.29;90.75;101527.13;5033448;28;20396;-67
2022/10/13 06:04:44;;;;;;;22.88;16.05;;;16.00;99.90;;;16.13;91.26;101505.16;5033228;28;20124;-67
2022/10/13 06:07:13;;;;;;;27.05;16.90;;;15.90;99.90;;;16.25;91.43;101534.31;5033330;28;20072;-66
2022/10/13 06:09:43;;;;;;;27.08;17.63;;;15.90;99.90;;;16.26;91.79;101540.53;5033437;28;20042;-67
2022/10/13 06:12:12;;;;;;;24.63;16.20;;;15.80;99.90;;;16.26;91.84;101529.84;5033093;28;20395;-66
2022/10/13 06:14:40;;;;;;;25.33;17.83;;;15.90;99.90;;;16.17;92.40;101543.34;5032879;28;20056;-67
2022/10/13 06:17:11;;;;;;;22.98;18.60;;;15.80;99.90;;;16.14;93.06;101538.09;5032944;28;20033;-67
2022/10/13 06:19:44;;;;;;;25.40;18.67;;;15.80;99.90;;;16.11;93.17;101533.66;5033118;28;20049;-66
2022/10/13 06:22:12;;;;;;;23.50;17.88;;;15.70;99.90;;;16.09;93.42;101534.59;5031946;28;20136;-67
2022/10/13 06:24:42;;;;;;;27.33;17.83;;;15.70;99.90;;;16.08;93.43;101530.16;5033025;28;20053;-67
2022/10/13 06:27:12;;;;;;;21.02;16.63;;;15.70;99.90;;;16.17;93.60;101543.34;5031970;28;20049;-68
2022/10/13 06:29:40;;;;;;;26.70;17.85;;;15.70;99.90;;;16.07;93.74;101539.97;5032823;28;20057;-68
2022/10/13 06:32:09;;;;;;;23.17;17.45;;;15.70;99.90;;;16.06;94.02;101548.88;5033214;28;20049;-69
2022/10/13 06:34:37;;;;;;;24.98;17.98;;;15.60;99.90;;;16.05;94.27;101544.44;5032727;28;20069;-69
2022/10/13 06:37:05;;;;;;;26.15;17.45;;;15.60;99.90;;;16.13;94.05;101544.31;5033225;28;20045;-70
2022/10/13 06:39:34;;;;;;;25.85;17.52;;;15.70;99.90;;;15.92;94.17;101520.63;5031711;28;20506;-72
2022/10/13 06:42:05;;;;;;;22.17;17.10;;;15.70;99.90;;;16.12;94.19;101542.56;5048129;28;20073;-71
2022/10/13 06:44:38;;;;;;;24.65;17.30;;;15.70;99.90;;;16.06;94.38;101543.53;5032875;28;20079;-71
2022/10/13 06:47:06;;;;;;;26.90;17.60;;;15.70;99.90;;;16.04;94.50;101540.03;5032455;28;20406;-73
2022/10/13 06:49:34;;;;;;;24.42;17.88;;;15.70;99.90;;;16.10;94.75;101539.03;5032966;28;20041;-72
2022/10/13 06:52:04;;;;;;;26.52;17.98;;;15.70;99.90;;;16.13;94.53;101533.63;5032680;28;20057;-71
2022/10/13 06:54:33;;;;;;;26.33;18.00;;;15.70;99.90;;;16.11;94.59;101539.00;5032917;28;20133;-71
2022/10/13 06:57:01;;;;;;;22.92;16.65;;;15.70;99.90;;;16.08;94.61;101533.72;5032303;28;20495;-72
2022/10/13 06:59:31;;;;;;;24.00;16.67;;;15.70;99.90;;;16.13;94.35;101541.63;5032316;28;20041;-72
2022/10/13 07:01:59;;;;;;;23.60;16.55;;;15.70;99.90;;;16.02;94.39;101511.59;5037841;28;20048;-70
2022/10/13 07:04:28;;;;;;;23.88;16.35;;;15.80;99.90;;;16.21;94.29;101531.72;5039520;28;20037;-70
2022/10/13 07:06:58;;;;;;;21.55;15.98;;;15.80;99.90;;;16.19;94.10;101533.53;5039283;28;20053;-68
2022/10/13 07:09:26;;;;;;;19.80;14.98;;;15.80;99.90;;;16.24;93.92;101521.88;5038865;28;20046;-68
2022/10/13 07:11:54;;;;;;;24.55;16.33;;;15.80;99.90;;;16.33;93.75;101515.50;5039102;28;20045;-69
2022/10/13 07:14:23;;;;;;;23.13;16.02;;;15.90;99.90;;;16.35;93.50;101524.38;5039037;28;20076;-68
2022/10/13 07:16:52;;;;;;;23.48;15.60;;;15.90;99.90;;;16.36;93.17;101534.13;5038158;28;20045;-71
2022/10/13 07:19:21;;;;;;;22.00;13.93;;;16.00;99.90;;;16.36;93.31;101531.44;5038860;28;20049;-62
2022/10/13 07:21:49;;;;;;;19.83;14.48;;;15.90;99.90;;;16.44;93.04;101534.88;5038955;28;20398;-72
2022/10/13 07:24:17;;;;;;;19.55;13.82;;;16.00;99.90;;;16.43;92.78;101533.13;5038795;28;20037;-69
2022/10/13 07:26:45;;;;;;;16.02;12.52;;;16.00;99.90;;;16.46;92.78;101529.50;5039037;28;20045;-70
2022/10/13 07:29:15;;;;;;;18.58;11.82;;;16.00;99.90;;;16.35;92.53;101510.13;5039398;28;20041;-72
2022/10/13 07:31:43;;;;;;;18.70;12.88;;;16.00;99.90;;;16.51;92.43;101527.69;5039068;28;20061;-68
2022/10/13 07:34:14;;;;;;;18.17;13.02;;;16.10;99.90;;;16.55;92.23;101524.03;5038729;28;20045;-68
2022/10/13 07:36:43;;;;;;;;;;;16.10;99.90;;;16.54;91.96;101528.50;5039319;28;20048;-70
2022/10/13 07:39:12;;;;;;;21.27;11.75;;;16.20;99.90;;;16.61;91.93;101519.44;5038778;28;19925;-72
2022/10/13 07:41:40;;;;;;;18.42;11.95;;;16.20;99.90;;;16.61;91.94;101531.91;5039095;28;20048;-70
2022/10/13 07:44:08;;;;;;;15.60;11.45;;;16.20;99.90;;;16.47;92.16;101526.81;5039168;28;20072;-70
2022/10/13 07:46:36;;;;;;;16.52;11.20;;;16.20;99.90;;;16.50;92.36;101532.13;5039209;28;20049;-70
2022/10/13 07:49:05;;;;;;;18.35;11.50;;;16.10;99.90;;;16.53;92.54;101526.72;5039244;28;20057;-70
2022/10/13 07:51:34;;;;;;;17.95;12.50;;;16.10;99.90;;;16.52;92.48;101529.41;5038886;28;20069;-69
2022/10/13 07:54:03;;;;;;;15.98;11.75;;;16.10;99.90;;;16.57;92.24;101539.09;5038854;28;20060;-70
2022/10/13 07:56:33;;;;;;;21.80;13.15;;;16.20;99.90;;;16.55;92.25;101532.91;5038844;28;20057;-70
2022/10/13 07:59:04;;;;;;;18.40;12.02;;;16.20;99.90;;;16.55;92.13;101532.91;5038761;28;20049;-70
2022/10/13 08:01:32;;;;;;;20.67;11.77;;;16.20;99.90;;;16.54;92.42;101532.94;5038866;28;20125;-70
2022/10/13 08:04:00;;;;;;;14.23;11.80;;;16.20;99.90;;;16.57;92.31;101533.78;5038380;28;20116;-70
2022/10/13 08:06:29;;;;;;;17.55;12.02;;;16.20;99.90;;;16.58;92.40;101540.88;5038442;28;20128;-70
2022/10/13 08:09:00;;;;;;;17.83;11.55;;;16.20;99.90;;;16.63;92.46;101549.69;5038750;28;20367;-70
2022/10/13 08:11:29;;;;;;;15.93;12.00;;;16.20;99.90;;;16.57;92.40;101543.59;5039027;28;20051;-70
2022/10/13 08:13:59;;;;;;;19.33;11.55;;;16.20;99.90;;;16.62;92.58;101539.94;5034304;28;20037;-70
2022/10/13 08:16:28;;;;;;;18.65;12.52;;;16.20;99.90;;;16.55;92.62;101540.94;5035682;28;20063;-70
2022/10/13 08:18:57;;;;;;;18.60;12.40;;;16.20;99.90;;;16.59;92.76;101531.09;5034282;28;20480;-70
2022/10/13 08:21:28;;;;;;;17.30;11.95;;;16.20;99.90;;;16.69;92.61;101524.66;5035616;28;20045;-71
2022/10/13 08:24:18;;;;;;;16.95;11.95;;;16.30;99.90;;;16.71;92.11;101521.03;5035392;28;20042;-70
2022/10/13 08:26:47;;;;;;;18.33;12.27;;;16.40;99.90;;;16.75;91.90;101522.75;5035468;28;20068;-70
2022/10/13 08:29:16;;;;;;;15.50;11.40;;;16.40;99.90;;;16.79;91.87;101515.56;5035168;28;20052;-70
2022/10/13 08:31:50;;;;;;;12.63;9.77;;;16.40;99.90;;;16.80;91.64;101520.00;5035490;28;20103;-70
2022/10/13 08:34:20;;;;;;;14.77;10.13;;;16.40;99.90;;;16.13;91.48;101408.19;5035261;28;20369;-70
2022/10/13 08:36:51;;;;;;;13.50;9.63;;;16.40;99.90;;;16.73;91.59;101505.88;5035558;28;20049;-69
2022/10/13 08:39:23;;;;;;;16.38;9.93;;;16.40;99.90;;;16.74;91.50;101525.47;5035102;28;20582;-70
2022/10/13 08:41:52;;;;;;;11.88;9.25;;;16.40;99.90;;;16.74;91.53;101542.34;5035175;28;20493;-70
2022/10/13 08:44:26;;;;;;;14.52;10.18;;;16.40;99.90;;;16.62;91.56;101515.88;5034650;28;20045;-70
2022/10/13 08:47:28;;;;;;;15.63;11.80;;;16.30;99.90;;;16.75;91.88;101529.88;5034558;28;20054;-70
2022/10/13 08:50:00;;;;;;;22.38;13.07;;;16.40;99.90;;;16.75;91.89;101537.91;5034671;28;20049;-70
2022/10/13 08:52:43;;;;;;;21.67;14.30;;;16.40;99.90;;;16.74;91.98;101534.31;5034676;28;20403;-71
2022/10/13 08:55:22;;;;;;;25.90;17.38;;;16.40;99.90;;;16.74;92.13;101528.13;5034846;28;20049;-71
2022/10/13 08:57:51;;;;;;;29.27;20.08;;;16.40;99.90;;;16.76;92.16;101528.97;5034773;28;20053;-70
2022/10/13 09:00:25;;;;;;;26.05;19.27;;;16.30;99.90;;;16.79;91.99;101528.91;5034700;28;20045;-70
2022/10/13 09:02:53;;;;;;;29.38;19.88;;;16.30;99.90;;;16.86;91.71;101518.06;5034374;28;20104;-70
2022/10/13 09:05:43;;;;;;;28.08;20.27;;;16.50;99.90;;;16.87;91.37;101521.63;5034357;28;20037;-70
2022/10/13 09:08:18;;;;;;;36.53;21.83;;;16.50;99.90;;;16.91;91.20;101521.56;5034643;28;20077;-70
2022/10/13 09:10:50;;;;;;;29.08;21.23;;;16.60;99.90;;;16.90;91.17;101517.09;5034679;28;20044;-70
2022/10/13 09:13:20;;;;;;;29.30;20.92;;;16.60;99.90;;;16.99;91.45;101524.06;5034533;28;20111;-70
2022/10/13 09:15:50;;;;;;;31.60;21.42;;;16.60;99.90;;;16.78;91.23;101490.63;5034080;28;20054;-70
2022/10/13 09:18:18;;;;;;;30.88;21.50;;;16.60;99.90;;;16.95;91.06;101514.34;5034144;28;20495;-71
2022/10/13 09:20:46;;;;;;;32.63;23.00;;;16.60;99.90;;;17.04;90.71;101509.69;5033986;28;20046;-70
2022/10/13 09:23:20;;;;;;;28.73;21.25;;;16.70;99.90;;;17.11;90.51;101515.81;5034156;28;20046;-70
2022/10/13 09:25:52;;;;;;;31.63;21.38;;;16.80;99.90;;;17.15;90.65;101521.03;5033952;28;20125;-70
2022/10/13 09:28:25;;;;;;;30.23;21.73;;;16.80;99.90;;;17.24;90.52;101527.09;5032807;28;20046;-70
2022/10/13 09:31:05;;;;;;;27.95;19.88;;;16.80;99.90;;;17.25;90.50;101519.03;5033614;28;20399;-71
2022/10/13 09:33:41;;;;;;;28.55;20.38;;;16.80;99.90;;;17.25;90.39;101523.53;5033704;28;20059;-70
2022/10/13 09:36:12;;;;;;;35.80;20.10;;;16.90;99.90;;;17.29;90.10;101520.75;5033894;28;20037;-70
2022/10/13 09:38:45;;;;;;;30.33;19.67;;;16.90;99.90;;;17.31;89.85;101516.25;5033696;28;20041;-71
2022/10/13 09:41:21;;;;;;;35.30;19.80;;;16.90;99.90;;;17.38;89.59;101509.84;5033583;28;20049;-70
2022/10/13 09:44:08;;;;;;;32.22;20.98;;;17.00;99.90;;;16.88;89.55;101428.06;5033623;28;20046;-70
2022/10/13 09:46:45;;;;;;;26.88;19.77;;;17.00;99.90;;;17.45;89.34;101515.94;5033573;28;20052;-71
2022/10/13 09:49:31;;;;;;;33.50;20.58;;;17.10;99.90;;;16.86;89.10;101408.50;5033763;28;20158;-70
2022/10/13 09:52:02;;;;;;;29.90;18.95;;;17.10;99.90;;;17.47;89.01;101520.34;5032360;28;20045;-70
2022/10/13 09:54:43;;;;;;;26.02;18.52;;;17.10;99.90;;;17.51;88.91;101511.38;5033936;28;20046;-71
2022/10/13 09:57:23;;;;;;;27.10;18.75;;;17.10;99.90;;;17.55;88.34;101512.19;5033308;28;20049;-70
2022/10/13 09:59:54;;;;;;;28.25;17.67;;;17.20;99.90;;;17.46;88.06;101488.28;5033783;28;20059;-70
2022/10/13 10:02:32;;;;;;;27.17;18.40;;;17.20;99.90;;;17.66;88.07;101504.78;5033453;28;20128;-70
2022/10/13 10:05:06;;;;;;;32.50;17.70;;;17.20;99.90;;;17.67;87.79;101507.41;5033126;28;20494;-70
2022/10/13 10:07:35;;;;;;;28.42;16.00;;;17.30;99.90;;;17.68;87.67;101508.31;5033425;28;20051;-70
2022/10/13 10:10:09;;;;;;;28.60;15.45;;;17.30;99.90;;;16.96;87.14;101383.34;5032954;28;20441;-70
2022/10/13 10:12:41;;;;;;;25.30;15.13;;;17.30;99.90;;;17.62;86.96;101487.94;5033014;28;20132;-70
2022/10/13 10:15:22;;;;;;;24.38;14.73;;;17.30;99.90;;;17.68;87.18;101490.47;5033297;28;20041;-70
2022/10/13 10:17:57;;;;;;;20.48;13.70;;;17.30;99.90;;;17.72;86.68;101493.94;5032940;28;20059;-70